sensor_id;sensor_type;location;lat;lon;timestamp;P1;durP1;ratioP1;P2;durP2;ratioP2
13704;SDS011;6924;52.122;9.952;2023-05-10T00:01:58;1.13;;;1.07;;
13704;SDS011;6924;52.122;9.952;2023-05-10T00:04:27;2.23;;;1.17;;
13704;SDS011;6924;52.122;9.952;2023-05-10T00:06:53;1.53;;;1.37;;
13704;SDS011;6924;52.122;9.952;2023-05-10T00:09:20;1.33;;;1.20;;
13704;SDS011;6924;52.122;9.952;2023-05-10T00:11:48;1.50;;;1.30;;
13704;SDS011;6924;52.122;9.952;2023-05-10T00:14:14;1.00;;;1.00;;
13704;SDS011;6924;52.122;9.952;2023-05-10T00:16:40;1.60;;;1.40;;
13704;SDS011;6924;52.122;9.952;2023-05-10T00:19:07;1.40;;;1.10;;
13704;SDS011;6924;52.122;9.952;2023-05-10T00:21:33;2.00;;;1.27;;
13704;SDS011;6924;52.122;9.952;2023-05-10T00:24:00;1.37;;;1.27;;
13704;SDS011;6924;52.122;9.952;2023-05-10T00:26:26;1.20;;;1.10;;
13704;SDS011;6924;52.122;9.952;2023-05-10T00:28:54;1.30;;;1.20;;
13704;SDS011;6924;52.122;9.952;2023-05-10T00:31:21;1.37;;;1.27;;
13704;SDS011;6924;52.122;9.952;2023-05-10T00:33:48;1.77;;;1.63;;
13704;SDS011;6924;52.122;9.952;2023-05-10T00:36:14;1.33;;;1.17;;
13704;SDS011;6924;52.122;9.952;2023-05-10T00:38:40;1.40;;;1.30;;
13704;SDS011;6924;52.122;9.952;2023-05-10T00:41:07;1.40;;;1.30;;
13704;SDS011;6924;52.122;9.952;2023-05-10T00:43:33;2.00;;;1.20;;
13704;SDS011;6924;52.122;9.952;2023-05-10T00:46:02;1.47;;;1.37;;
13704;SDS011;6924;52.122;9.952;2023-05-10T00:48:28;1.37;;;1.27;;
13704;SDS011;6924;52.122;9.952;2023-05-10T00:50:55;1.80;;;1.33;;
13704;SDS011;6924;52.122;9.952;2023-05-10T00:53:22;1.27;;;1.17;;
13704;SDS011;6924;52.122;9.952;2023-05-10T00:55:49;1.27;;;1.17;;
13704;SDS011;6924;52.122;9.952;2023-05-10T00:58:16;1.27;;;1.10;;
13704;SDS011;6924;52.122;9.952;2023-05-10T01:00:42;1.17;;;1.07;;
13704;SDS011;6924;52.122;9.952;2023-05-10T01:03:13;1.57;;;1.47;;
13704;SDS011;6924;52.122;9.952;2023-05-10T01:05:40;1.43;;;1.33;;
13704;SDS011;6924;52.122;9.952;2023-05-10T01:08:06;1.40;;;1.27;;
13704;SDS011;6924;52.122;9.952;2023-05-10T01:10:33;3.47;;;1.57;;
13704;SDS011;6924;52.122;9.952;2023-05-10T01:13:01;2.37;;;1.70;;
13704;SDS011;6924;52.122;9.952;2023-05-10T01:15:28;1.50;;;1.20;;
13704;SDS011;6924;52.122;9.952;2023-05-10T01:17:55;1.87;;;1.47;;
13704;SDS011;6924;52.122;9.952;2023-05-10T01:20:24;1.60;;;1.50;;
13704;SDS011;6924;52.122;9.952;2023-05-10T01:29:10;1.60;;;1.50;;
13704;SDS011;6924;52.122;9.952;2023-05-10T01:34:34;1.80;;;1.70;;
13704;SDS011;6924;52.122;9.952;2023-05-10T01:37:06;1.73;;;1.63;;
13704;SDS011;6924;52.122;9.952;2023-05-10T01:39:38;1.60;;;1.50;;
13704;SDS011;6924;52.122;9.952;2023-05-10T01:42:11;1.60;;;1.50;;
13704;SDS011;6924;52.122;9.952;2023-05-10T01:44:41;2.97;;;1.07;;
13704;SDS011;6924;52.122;9.952;2023-05-10T01:47:17;1.43;;;1.33;;
13704;SDS011;6924;52.122;9.952;2023-05-10T01:49:52;1.50;;;1.40;;
13704;SDS011;6924;52.122;9.952;2023-05-10T01:52:22;2.00;;;1.90;;
13704;SDS011;6924;52.122;9.952;2023-05-10T01:54:58;2.27;;;2.07;;
13704;SDS011;6924;52.122;9.952;2023-05-10T01:57:31;1.77;;;1.67;;
13704;SDS011;6924;52.122;9.952;2023-05-10T01:59:59;3.23;;;1.90;;
13704;SDS011;6924;52.122;9.952;2023-05-10T02:02:30;1.87;;;1.77;;
13704;SDS011;6924;52.122;9.952;2023-05-10T02:05:01;2.27;;;1.90;;
13704;SDS011;6924;52.122;9.952;2023-05-10T02:07:29;2.10;;;2.00;;
13704;SDS011;6924;52.122;9.952;2023-05-10T02:09:58;2.13;;;1.90;;
13704;SDS011;6924;52.122;9.952;2023-05-10T02:12:25;1.70;;;1.60;;
13704;SDS011;6924;52.122;9.952;2023-05-10T02:14:52;1.63;;;1.53;;
13704;SDS011;6924;52.122;9.952;2023-05-10T02:17:20;2.57;;;1.57;;
13704;SDS011;6924;52.122;9.952;2023-05-10T02:19:49;2.30;;;2.00;;
13704;SDS011;6924;52.122;9.952;2023-05-10T02:22:17;1.97;;;1.70;;
13704;SDS011;6924;52.122;9.952;2023-05-10T02:24:45;2.70;;;2.47;;
13704;SDS011;6924;52.122;9.952;2023-05-10T02:27:12;1.67;;;1.57;;
13704;SDS011;6924;52.122;9.952;2023-05-10T02:29:40;2.20;;;2.00;;
13704;SDS011;6924;52.122;9.952;2023-05-10T02:32:07;2.17;;;1.97;;
13704;SDS011;6924;52.122;9.952;2023-05-10T02:34:35;1.63;;;1.47;;
13704;SDS011;6924;52.122;9.952;2023-05-10T02:37:04;1.60;;;1.50;;
13704;SDS011;6924;52.122;9.952;2023-05-10T02:39:31;2.00;;;1.90;;
13704;SDS011;6924;52.122;9.952;2023-05-10T02:41:58;2.20;;;2.00;;
13704;SDS011;6924;52.122;9.952;2023-05-10T02:44:26;1.80;;;1.70;;
13704;SDS011;6924;52.122;9.952;2023-05-10T02:46:56;2.00;;;1.90;;
13704;SDS011;6924;52.122;9.952;2023-05-10T02:49:23;1.97;;;1.80;;
13704;SDS011;6924;52.122;9.952;2023-05-10T02:51:50;2.60;;;2.23;;
13704;SDS011;6924;52.122;9.952;2023-05-10T02:54:24;2.13;;;1.67;;
13704;SDS011;6924;52.122;9.952;2023-05-10T02:56:58;1.90;;;1.80;;
13704;SDS011;6924;52.122;9.952;2023-05-10T02:59:26;2.07;;;1.87;;
13704;SDS011;6924;52.122;9.952;2023-05-10T03:01:53;3.63;;;1.90;;
13704;SDS011;6924;52.122;9.952;2023-05-10T03:04:19;2.97;;;1.57;;
13704;SDS011;6924;52.122;9.952;2023-05-10T03:06:46;3.80;;;2.20;;
13704;SDS011;6924;52.122;9.952;2023-05-10T03:09:12;2.00;;;1.80;;
13704;SDS011;6924;52.122;9.952;2023-05-10T03:11:46;2.90;;;2.30;;
13704;SDS011;6924;52.122;9.952;2023-05-10T03:14:21;2.37;;;2.07;;
13704;SDS011;6924;52.122;9.952;2023-05-10T03:17:04;2.20;;;2.10;;
13704;SDS011;6924;52.122;9.952;2023-05-10T03:19:37;3.47;;;3.17;;
13704;SDS011;6924;52.122;9.952;2023-05-10T03:22:10;2.40;;;2.03;;
13704;SDS011;6924;52.122;9.952;2023-05-10T03:24:38;2.20;;;2.00;;
13704;SDS011;6924;52.122;9.952;2023-05-10T03:27:08;2.20;;;2.00;;
13704;SDS011;6924;52.122;9.952;2023-05-10T03:29:36;2.63;;;2.43;;
13704;SDS011;6924;52.122;9.952;2023-05-10T03:32:04;2.03;;;1.90;;
13704;SDS011;6924;52.122;9.952;2023-05-10T03:34:30;2.37;;;2.17;;
13704;SDS011;6924;52.122;9.952;2023-05-10T03:36:57;1.97;;;1.80;;
13704;SDS011;6924;52.122;9.952;2023-05-10T03:39:23;2.40;;;2.17;;
13704;SDS011;6924;52.122;9.952;2023-05-10T03:41:50;2.70;;;1.97;;
13704;SDS011;6924;52.122;9.952;2023-05-10T03:44:18;1.87;;;1.77;;
13704;SDS011;6924;52.122;9.952;2023-05-10T03:46:44;2.20;;;2.10;;
13704;SDS011;6924;52.122;9.952;2023-05-10T03:49:10;2.60;;;2.40;;
13704;SDS011;6924;52.122;9.952;2023-05-10T03:51:37;2.37;;;2.20;;
13704;SDS011;6924;52.122;9.952;2023-05-10T03:54:03;2.60;;;2.40;;
13704;SDS011;6924;52.122;9.952;2023-05-10T03:56:30;2.07;;;1.97;;
13704;SDS011;6924;52.122;9.952;2023-05-10T03:58:56;2.10;;;1.90;;
13704;SDS011;6924;52.122;9.952;2023-05-10T04:01:24;2.20;;;2.00;;
13704;SDS011;6924;52.122;9.952;2023-05-10T04:03:50;1.80;;;1.70;;
13704;SDS011;6924;52.122;9.952;2023-05-10T04:06:17;2.50;;;2.23;;
13704;SDS011;6924;52.122;9.952;2023-05-10T04:08:43;2.13;;;1.97;;
13704;SDS011;6924;52.122;9.952;2023-05-10T04:11:11;2.10;;;2.00;;
13704;SDS011;6924;52.122;9.952;2023-05-10T04:13:38;2.50;;;2.30;;
13704;SDS011;6924;52.122;9.952;2023-05-10T04:16:05;2.50;;;2.30;;
13704;SDS011;6924;52.122;9.952;2023-05-10T04:18:33;2.33;;;2.13;;
13704;SDS011;6924;52.122;9.952;2023-05-10T04:20:59;2.17;;;1.97;;
13704;SDS011;6924;52.122;9.952;2023-05-10T04:23:26;1.90;;;1.80;;
13704;SDS011;6924;52.122;9.952;2023-05-10T04:25:52;2.47;;;2.27;;
13704;SDS011;6924;52.122;9.952;2023-05-10T04:28:24;2.87;;;2.67;;
13704;SDS011;6924;52.122;9.952;2023-05-10T04:30:51;2.03;;;1.93;;
13704;SDS011;6924;52.122;9.952;2023-05-10T04:33:17;2.30;;;2.07;;
13704;SDS011;6924;52.122;9.952;2023-05-10T04:35:45;2.37;;;2.17;;
13704;SDS011;6924;52.122;9.952;2023-05-10T04:38:11;1.60;;;1.50;;
13704;SDS011;6924;52.122;9.952;2023-05-10T04:40:38;2.57;;;2.37;;
13704;SDS011;6924;52.122;9.952;2023-05-10T04:43:04;2.03;;;1.83;;
13704;SDS011;6924;52.122;9.952;2023-05-10T04:45:30;2.80;;;2.40;;
13704;SDS011;6924;52.122;9.952;2023-05-10T04:47:57;2.47;;;2.27;;
13704;SDS011;6924;52.122;9.952;2023-05-10T04:50:23;1.90;;;1.80;;
13704;SDS011;6924;52.122;9.952;2023-05-10T04:52:51;2.53;;;2.33;;
13704;SDS011;6924;52.122;9.952;2023-05-10T04:55:17;2.13;;;1.97;;
13704;SDS011;6924;52.122;9.952;2023-05-10T04:57:44;2.20;;;1.67;;
13704;SDS011;6924;52.122;9.952;2023-05-10T05:00:11;2.27;;;2.17;;
13704;SDS011;6924;52.122;9.952;2023-05-10T05:02:38;1.80;;;1.70;;
13704;SDS011;6924;52.122;9.952;2023-05-10T05:05:04;2.17;;;1.93;;
13704;SDS011;6924;52.122;9.952;2023-05-10T05:07:32;1.77;;;1.67;;
13704;SDS011;6924;52.122;9.952;2023-05-10T05:09:59;2.50;;;2.30;;
13704;SDS011;6924;52.122;9.952;2023-05-10T05:12:26;2.53;;;2.33;;
13704;SDS011;6924;52.122;9.952;2023-05-10T05:14:52;2.47;;;2.10;;
13704;SDS011;6924;52.122;9.952;2023-05-10T05:17:19;2.40;;;2.30;;
13704;SDS011;6924;52.122;9.952;2023-05-10T05:19:45;2.07;;;1.90;;
13704;SDS011;6924;52.122;9.952;2023-05-10T05:22:11;2.40;;;2.20;;
13704;SDS011;6924;52.122;9.952;2023-05-10T05:24:38;2.03;;;1.83;;
13704;SDS011;6924;52.122;9.952;2023-05-10T05:27:05;2.50;;;2.30;;
13704;SDS011;6924;52.122;9.952;2023-05-10T05:29:32;2.03;;;1.90;;
13704;SDS011;6924;52.122;9.952;2023-05-10T05:31:59;2.30;;;2.20;;
13704;SDS011;6924;52.122;9.952;2023-05-10T05:34:25;2.57;;;2.37;;
13704;SDS011;6924;52.122;9.952;2023-05-10T05:36:52;2.13;;;1.93;;
13704;SDS011;6924;52.122;9.952;2023-05-10T05:39:18;2.37;;;2.17;;
13704;SDS011;6924;52.122;9.952;2023-05-10T05:41:45;2.10;;;2.00;;
13704;SDS011;6924;52.122;9.952;2023-05-10T05:44:13;2.50;;;2.27;;
13704;SDS011;6924;52.122;9.952;2023-05-10T05:46:39;2.60;;;2.40;;
13704;SDS011;6924;52.122;9.952;2023-05-10T05:49:06;2.50;;;2.30;;
13704;SDS011;6924;52.122;9.952;2023-05-10T05:51:32;2.63;;;2.43;;
13704;SDS011;6924;52.122;9.952;2023-05-10T05:54:00;2.13;;;1.93;;
13704;SDS011;6924;52.122;9.952;2023-05-10T05:56:28;2.40;;;2.20;;
13704;SDS011;6924;52.122;9.952;2023-05-10T05:58:54;2.50;;;2.30;;
13704;SDS011;6924;52.122;9.952;2023-05-10T06:01:22;2.80;;;2.60;;
13704;SDS011;6924;52.122;9.952;2023-05-10T06:03:48;2.17;;;2.00;;
13704;SDS011;6924;52.122;9.952;2023-05-10T06:06:15;4.07;;;2.30;;
13704;SDS011;6924;52.122;9.952;2023-05-10T06:08:41;2.27;;;2.00;;
13704;SDS011;6924;52.122;9.952;2023-05-10T06:11:08;2.47;;;2.27;;
13704;SDS011;6924;52.122;9.952;2023-05-10T06:13:34;3.17;;;2.63;;
13704;SDS011;6924;52.122;9.952;2023-05-10T06:16:00;2.50;;;2.30;;
13704;SDS011;6924;52.122;9.952;2023-05-10T06:18:29;2.57;;;2.37;;
13704;SDS011;6924;52.122;9.952;2023-05-10T06:20:55;2.57;;;2.33;;
13704;SDS011;6924;52.122;9.952;2023-05-10T06:23:22;2.90;;;2.30;;
13704;SDS011;6924;52.122;9.952;2023-05-10T06:25:50;2.20;;;2.07;;
13704;SDS011;6924;52.122;9.952;2023-05-10T06:28:17;2.77;;;2.40;;
13704;SDS011;6924;52.122;9.952;2023-05-10T06:30:43;2.20;;;2.10;;
13704;SDS011;6924;52.122;9.952;2023-05-10T06:33:09;2.43;;;2.23;;
13704;SDS011;6924;52.122;9.952;2023-05-10T06:35:37;3.13;;;2.83;;
13704;SDS011;6924;52.122;9.952;2023-05-10T06:38:04;2.97;;;2.63;;
13704;SDS011;6924;52.122;9.952;2023-05-10T06:40:30;2.27;;;2.07;;
13704;SDS011;6924;52.122;9.952;2023-05-10T06:42:57;2.33;;;2.17;;
13704;SDS011;6924;52.122;9.952;2023-05-10T06:45:24;2.43;;;2.27;;
13704;SDS011;6924;52.122;9.952;2023-05-10T06:47:50;2.73;;;2.53;;
13704;SDS011;6924;52.122;9.952;2023-05-10T06:50:17;2.87;;;2.67;;
13704;SDS011;6924;52.122;9.952;2023-05-10T06:52:45;2.33;;;2.13;;
13704;SDS011;6924;52.122;9.952;2023-05-10T06:55:11;2.47;;;2.37;;
13704;SDS011;6924;52.122;9.952;2023-05-10T06:57:37;2.17;;;2.07;;
13704;SDS011;6924;52.122;9.952;2023-05-10T07:00:04;2.40;;;2.20;;
13704;SDS011;6924;52.122;9.952;2023-05-10T07:02:32;2.67;;;2.47;;
13704;SDS011;6924;52.122;9.952;2023-05-10T07:04:58;2.27;;;2.07;;
13704;SDS011;6924;52.122;9.952;2023-05-10T07:07:24;2.57;;;2.33;;
13704;SDS011;6924;52.122;9.952;2023-05-10T07:09:52;2.20;;;2.00;;
13704;SDS011;6924;52.122;9.952;2023-05-10T07:12:19;2.63;;;2.20;;
13704;SDS011;6924;52.122;9.952;2023-05-10T07:14:45;2.00;;;1.90;;
13704;SDS011;6924;52.122;9.952;2023-05-10T07:17:11;2.07;;;1.93;;
13704;SDS011;6924;52.122;9.952;2023-05-10T07:19:38;2.77;;;2.27;;
13704;SDS011;6924;52.122;9.952;2023-05-10T07:22:04;1.87;;;1.67;;
13704;SDS011;6924;52.122;9.952;2023-05-10T07:24:31;2.63;;;2.43;;
13704;SDS011;6924;52.122;9.952;2023-05-10T07:26:59;2.27;;;2.07;;
13704;SDS011;6924;52.122;9.952;2023-05-10T07:29:25;2.20;;;2.00;;
13704;SDS011;6924;52.122;9.952;2023-05-10T07:31:52;2.00;;;1.90;;
13704;SDS011;6924;52.122;9.952;2023-05-10T07:34:18;2.40;;;2.20;;
13704;SDS011;6924;52.122;9.952;2023-05-10T07:36:45;2.33;;;2.13;;
13704;SDS011;6924;52.122;9.952;2023-05-10T07:39:11;2.37;;;1.90;;
13704;SDS011;6924;52.122;9.952;2023-05-10T07:41:38;2.37;;;2.17;;
13704;SDS011;6924;52.122;9.952;2023-05-10T07:44:06;2.13;;;1.93;;
13704;SDS011;6924;52.122;9.952;2023-05-10T07:46:32;2.43;;;2.23;;
13704;SDS011;6924;52.122;9.952;2023-05-10T07:48:59;2.30;;;2.10;;
13704;SDS011;6924;52.122;9.952;2023-05-10T07:51:25;2.33;;;2.13;;
13704;SDS011;6924;52.122;9.952;2023-05-10T07:53:52;1.97;;;1.87;;
13704;SDS011;6924;52.122;9.952;2023-05-10T07:56:20;1.87;;;1.77;;
13704;SDS011;6924;52.122;9.952;2023-05-10T07:58:48;2.13;;;2.03;;
13704;SDS011;6924;52.122;9.952;2023-05-10T08:01:16;2.27;;;2.17;;
13704;SDS011;6924;52.122;9.952;2023-05-10T08:03:42;2.30;;;2.10;;
13704;SDS011;6924;52.122;9.952;2023-05-10T08:06:08;2.63;;;1.30;;
13704;SDS011;6924;52.122;9.952;2023-05-10T08:08:35;1.07;;;1.00;;
13704;SDS011;6924;52.122;9.952;2023-05-10T08:11:01;0.73;;;0.73;;
13704;SDS011;6924;52.122;9.952;2023-05-10T08:13:28;0.77;;;0.77;;
13704;SDS011;6924;52.122;9.952;2023-05-10T08:15:54;0.57;;;0.50;;
13704;SDS011;6924;52.122;9.952;2023-05-10T08:18:22;0.57;;;0.57;;
13704;SDS011;6924;52.122;9.952;2023-05-10T08:20:49;0.50;;;0.50;;
13704;SDS011;6924;52.122;9.952;2023-05-10T08:23:15;0.40;;;0.40;;
13704;SDS011;6924;52.122;9.952;2023-05-10T08:25:41;0.60;;;0.60;;
13704;SDS011;6924;52.122;9.952;2023-05-10T08:28:08;0.50;;;0.50;;
13704;SDS011;6924;52.122;9.952;2023-05-10T08:30:34;0.60;;;0.60;;
13704;SDS011;6924;52.122;9.952;2023-05-10T08:33:01;0.37;;;0.37;;
13704;SDS011;6924;52.122;9.952;2023-05-10T08:35:28;0.90;;;0.50;;
13704;SDS011;6924;52.122;9.952;2023-05-10T08:37:55;0.33;;;0.33;;
13704;SDS011;6924;52.122;9.952;2023-05-10T08:40:21;0.30;;;0.30;;
13704;SDS011;6924;52.122;9.952;2023-05-10T08:42:54;0.30;;;0.30;;
13704;SDS011;6924;52.122;9.952;2023-05-10T08:45:24;0.40;;;0.40;;
13704;SDS011;6924;52.122;9.952;2023-05-10T08:47:57;0.20;;;0.20;;
13704;SDS011;6924;52.122;9.952;2023-05-10T08:50:28;0.50;;;0.50;;
13704;SDS011;6924;52.122;9.952;2023-05-10T08:52:57;0.40;;;0.40;;
13704;SDS011;6924;52.122;9.952;2023-05-10T08:55:26;0.33;;;0.27;;
13704;SDS011;6924;52.122;9.952;2023-05-10T08:57:52;0.20;;;0.20;;
13704;SDS011;6924;52.122;9.952;2023-05-10T09:00:19;0.20;;;0.20;;
13704;SDS011;6924;52.122;9.952;2023-05-10T09:02:48;0.60;;;0.50;;
13704;SDS011;6924;52.122;9.952;2023-05-10T09:05:15;0.20;;;0.20;;
13704;SDS011;6924;52.122;9.952;2023-05-10T09:07:44;0.20;;;0.20;;
13704;SDS011;6924;52.122;9.952;2023-05-10T09:10:11;0.20;;;0.20;;
13704;SDS011;6924;52.122;9.952;2023-05-10T09:12:39;0.50;;;0.30;;
13704;SDS011;6924;52.122;9.952;2023-05-10T09:15:05;0.13;;;0.13;;
13704;SDS011;6924;52.122;9.952;2023-05-10T09:17:35;0.10;;;0.10;;
13704;SDS011;6924;52.122;9.952;2023-05-10T09:20:03;0.10;;;0.10;;
13704;SDS011;6924;52.122;9.952;2023-05-10T09:22:31;0.03;;;0.03;;
13704;SDS011;6924;52.122;9.952;2023-05-10T09:25:05;0.00;;;0.00;;
13704;SDS011;6924;52.122;9.952;2023-05-10T09:27:33;0.00;;;0.00;;
13704;SDS011;6924;52.122;9.952;2023-05-10T09:30:00;0.00;;;0.00;;
13704;SDS011;6924;52.122;9.952;2023-05-10T09:32:35;0.10;;;0.10;;
13704;SDS011;6924;52.122;9.952;2023-05-10T09:35:06;0.13;;;0.13;;
13704;SDS011;6924;52.122;9.952;2023-05-10T09:37:33;0.00;;;0.00;;
13704;SDS011;6924;52.122;9.952;2023-05-10T09:39:59;1.70;;;0.10;;
13704;SDS011;6924;52.122;9.952;2023-05-10T09:42:27;0.10;;;0.10;;
13704;SDS011;6924;52.122;9.952;2023-05-10T09:44:53;0.10;;;0.10;;
13704;SDS011;6924;52.122;9.952;2023-05-10T09:47:19;0.10;;;0.10;;
13704;SDS011;6924;52.122;9.952;2023-05-10T09:49:49;0.10;;;0.10;;
13704;SDS011;6924;52.122;9.952;2023-05-10T09:52:15;0.20;;;0.20;;
13704;SDS011;6924;52.122;9.952;2023-05-10T09:54:44;0.10;;;0.10;;
13704;SDS011;6924;52.122;9.952;2023-05-10T09:57:19;0.63;;;0.10;;
13704;SDS011;6924;52.122;9.952;2023-05-10T09:59:48;0.20;;;0.20;;
13704;SDS011;6924;52.122;9.952;2023-05-10T10:02:16;0.10;;;0.10;;
13704;SDS011;6924;52.122;9.952;2023-05-10T10:04:42;0.10;;;0.10;;
13704;SDS011;6924;52.122;9.952;2023-05-10T10:07:09;0.20;;;0.20;;
13704;SDS011;6924;52.122;9.952;2023-05-10T10:09:35;0.30;;;0.30;;
13704;SDS011;6924;52.122;9.952;2023-05-10T10:12:02;0.23;;;0.23;;
13704;SDS011;6924;52.122;9.952;2023-05-10T10:14:29;1.07;;;0.60;;
13704;SDS011;6924;52.122;9.952;2023-05-10T10:16:57;0.50;;;0.50;;
13704;SDS011;6924;52.122;9.952;2023-05-10T10:19:26;0.60;;;0.50;;
13704;SDS011;6924;52.122;9.952;2023-05-10T10:21:53;0.50;;;0.50;;
13704;SDS011;6924;52.122;9.952;2023-05-10T10:24:19;0.50;;;0.50;;
13704;SDS011;6924;52.122;9.952;2023-05-10T10:26:45;1.07;;;0.73;;
13704;SDS011;6924;52.122;9.952;2023-05-10T10:29:18;0.30;;;0.30;;
13704;SDS011;6924;52.122;9.952;2023-05-10T10:31:51;0.60;;;0.60;;
13704;SDS011;6924;52.122;9.952;2023-05-10T10:34:26;0.50;;;0.50;;
13704;SDS011;6924;52.122;9.952;2023-05-10T10:36:55;0.63;;;0.50;;
13704;SDS011;6924;52.122;9.952;2023-05-10T10:39:22;0.70;;;0.60;;
13704;SDS011;6924;52.122;9.952;2023-05-10T10:41:50;0.60;;;0.60;;
13704;SDS011;6924;52.122;9.952;2023-05-10T10:44:34;0.50;;;0.50;;
13704;SDS011;6924;52.122;9.952;2023-05-10T10:47:04;0.47;;;0.40;;
13704;SDS011;6924;52.122;9.952;2023-05-10T10:49:38;0.50;;;0.50;;
13704;SDS011;6924;52.122;9.952;2023-05-10T10:52:22;0.47;;;0.47;;
13704;SDS011;6924;52.122;9.952;2023-05-10T10:54:53;0.30;;;0.30;;
13704;SDS011;6924;52.122;9.952;2023-05-10T10:57:27;0.33;;;0.33;;
13704;SDS011;6924;52.122;9.952;2023-05-10T11:02:44;1.17;;;0.47;;
13704;SDS011;6924;52.122;9.952;2023-05-10T11:05:24;0.40;;;0.40;;
13704;SDS011;6924;52.122;9.952;2023-05-10T11:08:01;0.50;;;0.50;;
13704;SDS011;6924;52.122;9.952;2023-05-10T11:10:33;0.40;;;0.40;;
13704;SDS011;6924;52.122;9.952;2023-05-10T11:13:00;0.53;;;0.40;;
13704;SDS011;6924;52.122;9.952;2023-05-10T11:15:30;0.93;;;0.50;;
13704;SDS011;6924;52.122;9.952;2023-05-10T11:17:57;0.70;;;0.70;;
13704;SDS011;6924;52.122;9.952;2023-05-10T11:20:28;0.50;;;0.40;;
13704;SDS011;6924;52.122;9.952;2023-05-10T11:23:00;0.63;;;0.63;;
13704;SDS011;6924;52.122;9.952;2023-05-10T11:25:40;0.53;;;0.50;;
13704;SDS011;6924;52.122;9.952;2023-05-10T11:28:07;0.70;;;0.60;;
13704;SDS011;6924;52.122;9.952;2023-05-10T11:30:37;0.50;;;0.50;;
13704;SDS011;6924;52.122;9.952;2023-05-10T11:33:05;0.67;;;0.50;;
13704;SDS011;6924;52.122;9.952;2023-05-10T11:35:37;0.53;;;0.53;;
13704;SDS011;6924;52.122;9.952;2023-05-10T11:38:05;0.60;;;0.60;;
13704;SDS011;6924;52.122;9.952;2023-05-10T11:40:32;0.50;;;0.50;;
13704;SDS011;6924;52.122;9.952;2023-05-10T11:43:02;0.87;;;0.70;;
13704;SDS011;6924;52.122;9.952;2023-05-10T11:45:31;1.17;;;0.50;;
13704;SDS011;6924;52.122;9.952;2023-05-10T11:47:59;0.57;;;0.57;;
13704;SDS011;6924;52.122;9.952;2023-05-10T11:50:25;1.43;;;0.80;;
13704;SDS011;6924;52.122;9.952;2023-05-10T11:52:53;0.50;;;0.50;;
13704;SDS011;6924;52.122;9.952;2023-05-10T11:55:21;0.60;;;0.60;;
13704;SDS011;6924;52.122;9.952;2023-05-10T11:57:51;0.50;;;0.50;;
13704;SDS011;6924;52.122;9.952;2023-05-10T12:00:18;0.70;;;0.70;;
13704;SDS011;6924;52.122;9.952;2023-05-10T12:02:48;0.80;;;0.60;;
13704;SDS011;6924;52.122;9.952;2023-05-10T12:05:14;0.57;;;0.57;;
13704;SDS011;6924;52.122;9.952;2023-05-10T12:07:42;0.67;;;0.60;;
13704;SDS011;6924;52.122;9.952;2023-05-10T12:10:10;0.83;;;0.60;;
13704;SDS011;6924;52.122;9.952;2023-05-10T12:12:39;0.80;;;0.60;;
13704;SDS011;6924;52.122;9.952;2023-05-10T12:15:10;1.13;;;0.70;;
13704;SDS011;6924;52.122;9.952;2023-05-10T12:17:38;0.50;;;0.50;;
13704;SDS011;6924;52.122;9.952;2023-05-10T12:20:18;0.40;;;0.40;;
13704;SDS011;6924;52.122;9.952;2023-05-10T12:22:49;0.40;;;0.40;;
13704;SDS011;6924;52.122;9.952;2023-05-10T12:25:18;0.60;;;0.50;;
13704;SDS011;6924;52.122;9.952;2023-05-10T12:27:50;0.40;;;0.40;;
13704;SDS011;6924;52.122;9.952;2023-05-10T12:30:20;0.67;;;0.40;;
13704;SDS011;6924;52.122;9.952;2023-05-10T12:32:48;0.60;;;0.60;;
13704;SDS011;6924;52.122;9.952;2023-05-10T12:35:14;0.60;;;0.60;;
13704;SDS011;6924;52.122;9.952;2023-05-10T12:37:41;0.53;;;0.53;;
13704;SDS011;6924;52.122;9.952;2023-05-10T12:40:08;0.90;;;0.50;;
13704;SDS011;6924;52.122;9.952;2023-05-10T12:42:38;0.93;;;0.90;;
13704;SDS011;6924;52.122;9.952;2023-05-10T12:45:05;0.50;;;0.50;;
13704;SDS011;6924;52.122;9.952;2023-05-10T12:47:32;0.60;;;0.60;;
13704;SDS011;6924;52.122;9.952;2023-05-10T12:50:00;1.17;;;0.60;;
13704;SDS011;6924;52.122;9.952;2023-05-10T12:52:27;0.40;;;0.40;;
13704;SDS011;6924;52.122;9.952;2023-05-10T12:54:54;0.37;;;0.37;;
13704;SDS011;6924;52.122;9.952;2023-05-10T12:57:20;0.30;;;0.30;;
13704;SDS011;6924;52.122;9.952;2023-05-10T12:59:48;0.30;;;0.30;;
13704;SDS011;6924;52.122;9.952;2023-05-10T13:02:15;0.40;;;0.40;;
13704;SDS011;6924;52.122;9.952;2023-05-10T13:04:43;0.50;;;0.50;;
13704;SDS011;6924;52.122;9.952;2023-05-10T13:07:09;1.93;;;0.50;;
13704;SDS011;6924;52.122;9.952;2023-05-10T13:09:36;1.07;;;1.07;;
13704;SDS011;6924;52.122;9.952;2023-05-10T13:12:02;1.80;;;0.30;;
13704;SDS011;6924;52.122;9.952;2023-05-10T13:14:29;0.60;;;0.60;;
13704;SDS011;6924;52.122;9.952;2023-05-10T13:16:57;0.40;;;0.40;;
13704;SDS011;6924;52.122;9.952;2023-05-10T13:19:23;2.67;;;0.70;;
13704;SDS011;6924;52.122;9.952;2023-05-10T13:21:50;0.80;;;0.50;;
13704;SDS011;6924;52.122;9.952;2023-05-10T13:24:16;0.60;;;0.50;;
13704;SDS011;6924;52.122;9.952;2023-05-10T13:26:43;0.50;;;0.50;;
13704;SDS011;6924;52.122;9.952;2023-05-10T13:29:09;0.60;;;0.60;;
13704;SDS011;6924;52.122;9.952;2023-05-10T13:31:36;0.67;;;0.50;;
13704;SDS011;6924;52.122;9.952;2023-05-10T13:34:04;0.53;;;0.53;;
13704;SDS011;6924;52.122;9.952;2023-05-10T13:36:31;0.80;;;0.57;;
13704;SDS011;6924;52.122;9.952;2023-05-10T13:38:57;0.50;;;0.50;;
13704;SDS011;6924;52.122;9.952;2023-05-10T13:41:26;0.40;;;0.40;;
13704;SDS011;6924;52.122;9.952;2023-05-10T13:43:52;0.60;;;0.60;;
13704;SDS011;6924;52.122;9.952;2023-05-10T13:46:19;0.50;;;0.50;;
13704;SDS011;6924;52.122;9.952;2023-05-10T13:48:45;0.50;;;0.50;;
13704;SDS011;6924;52.122;9.952;2023-05-10T13:51:13;0.50;;;0.50;;
13704;SDS011;6924;52.122;9.952;2023-05-10T13:53:39;0.70;;;0.70;;
13704;SDS011;6924;52.122;9.952;2023-05-10T13:56:06;0.70;;;0.63;;
13704;SDS011;6924;52.122;9.952;2023-05-10T13:58:32;0.70;;;0.40;;
13704;SDS011;6924;52.122;9.952;2023-05-10T14:01:00;0.53;;;0.53;;
13704;SDS011;6924;52.122;9.952;2023-05-10T14:03:27;0.53;;;0.50;;
13704;SDS011;6924;52.122;9.952;2023-05-10T14:05:53;0.60;;;0.60;;
13704;SDS011;6924;52.122;9.952;2023-05-10T14:08:21;0.80;;;0.60;;
13704;SDS011;6924;52.122;9.952;2023-05-10T14:10:47;0.57;;;0.57;;
13704;SDS011;6924;52.122;9.952;2023-05-10T14:13:15;0.47;;;0.47;;
13704;SDS011;6924;52.122;9.952;2023-05-10T14:15:42;0.60;;;0.40;;
13704;SDS011;6924;52.122;9.952;2023-05-10T14:18:08;0.43;;;0.43;;
13704;SDS011;6924;52.122;9.952;2023-05-10T14:20:34;0.60;;;0.60;;
13704;SDS011;6924;52.122;9.952;2023-05-10T14:23:01;0.50;;;0.50;;
13704;SDS011;6924;52.122;9.952;2023-05-10T14:25:28;0.57;;;0.50;;
13704;SDS011;6924;52.122;9.952;2023-05-10T14:27:55;0.40;;;0.40;;
13704;SDS011;6924;52.122;9.952;2023-05-10T14:30:22;0.20;;;0.20;;
13704;SDS011;6924;52.122;9.952;2023-05-10T14:32:48;0.40;;;0.40;;
13704;SDS011;6924;52.122;9.952;2023-05-10T14:35:14;0.80;;;0.80;;
13704;SDS011;6924;52.122;9.952;2023-05-10T14:37:41;0.50;;;0.50;;
13704;SDS011;6924;52.122;9.952;2023-05-10T14:40:08;0.50;;;0.50;;
13704;SDS011;6924;52.122;9.952;2023-05-10T14:42:36;0.50;;;0.50;;
13704;SDS011;6924;52.122;9.952;2023-05-10T14:45:03;0.43;;;0.43;;
13704;SDS011;6924;52.122;9.952;2023-05-10T14:47:30;1.80;;;0.50;;
13704;SDS011;6924;52.122;9.952;2023-05-10T14:49:56;0.60;;;0.60;;
13704;SDS011;6924;52.122;9.952;2023-05-10T14:52:23;0.70;;;0.50;;
13704;SDS011;6924;52.122;9.952;2023-05-10T14:54:49;1.03;;;0.83;;
13704;SDS011;6924;52.122;9.952;2023-05-10T14:57:16;0.90;;;0.70;;
13704;SDS011;6924;52.122;9.952;2023-05-10T14:59:43;0.67;;;0.67;;
13704;SDS011;6924;52.122;9.952;2023-05-10T15:02:10;1.13;;;1.03;;
13704;SDS011;6924;52.122;9.952;2023-05-10T15:04:36;1.37;;;0.97;;
13704;SDS011;6924;52.122;9.952;2023-05-10T15:07:03;1.67;;;1.30;;
13704;SDS011;6924;52.122;9.952;2023-05-10T15:09:29;1.37;;;1.27;;
13704;SDS011;6924;52.122;9.952;2023-05-10T15:11:55;2.10;;;0.80;;
13704;SDS011;6924;52.122;9.952;2023-05-10T15:14:22;0.67;;;0.63;;
13704;SDS011;6924;52.122;9.952;2023-05-10T15:16:50;0.73;;;0.70;;